Soleil Weather Down

Nearby METAR Reports

 

KCNI - Canton/Cherokee, Georgia, USA
Distance from station: ENE 6mi, 10km
Updated: Thu, 19-Apr-2018 11:35am EDT
Clear
Clear
 Wind from WNW
Wind: WNW 20 mph , 31 km/h, Gust: 26 mph , 43 km/h
Temperature: 57°F , 14°C
Dew Point: 32°F , 0°C
Humidity: 39%
Barometer: 30.08 inHg , 1018.6 hPa
Clouds: Clear
Visibility: 10 miles , 16 km
2018/04/19 15:35 KCNI 191535Z AUTO 30017G23KT 10SM CLR 14/00 A3008 RMK AO2
KRYY - Marietta Mccolum, Georgia, USA
Distance from station: SSW 18mi, 29km
Updated: Thu, 19-Apr-2018 10:48am EDT
Clear
Clear
 Wind from WNW
Wind: WNW 15 mph , 24 km/h, Gust: 22 mph , 35 km/h
Temperature: 57°F , 14°C
Dew Point: 36°F , 2°C
Humidity: 44%
Barometer: 30.06 inHg , 1017.9 hPa
Clouds: Clear
Visibility: 10 miles , 16 km
2018/04/19 14:48 KRYY 191448Z 30013G19KT 10SM CLR 14/02 A3006 RMK AO2 SLP900 T01440022 51024
KVPC - Cartersville, Georgia, USA
Distance from station: WSW 22mi, 35km
Updated: Thu, 19-Apr-2018 10:53am EDT
Clear
Clear
 Wind from varies
Wind: varies 6 mph , 9 km/h
Temperature: 59°F , 15°C
Dew Point: 37°F , 3°C
Humidity: 45%
Barometer: 30.09 inHg , 1019 hPa
Clouds: Clear
Visibility: 10 miles , 16 km
2018/04/19 14:53 KVPC 191453Z AUTO VRB05KT 10SM CLR 15/03 A3009 RMK AO2 SLP180 T01500033 51024
 
KMGE - Dobbins Afb/Mari, Georgia, USA
Distance from station: S 24mi, 39km
Updated: Thu, 19-Apr-2018 10:56am EDT
Clear
Clear
 Wind from W
Wind: W 17 mph , 28 km/h, Gust: 21 mph , 33 km/h
Temperature: 61°F , 16°C
Dew Point: 37°F , 3°C
Humidity: 42%
Barometer: 30.05 inHg , 1017.6 hPa
Clouds: Clear
Visibility: 10 miles , 16 km
2018/04/19 14:56 KMGE 191456Z 28015G18KT 10SM CLR 16/03 A3005 RMK AO2A PK WND 28026/11 SLP171 T01580026 52026 $
KPDK - Peachtree/Dekalb, Georgia, USA
Distance from station: SSE 29mi, 47km
Updated: Thu, 19-Apr-2018 10:53am EDT
Clear
Clear
 Wind from W
Wind: W 14 mph , 22 km/h, Gust: 24 mph , 39 km/h
Temperature: 61°F , 16°C
Dew Point: 37°F , 3°C
Humidity: 42%
Barometer: 30.04 inHg , 1017.3 hPa
Clouds: Clear
Visibility: 10 miles , 16 km
2018/04/19 14:53 KPDK 191453Z 28012G21KT 250V320 10SM CLR 16/03 A3004 RMK AO2 SLP163 T01610028 51027
KFTY - Atlanta/Fulton, Georgia, USA
Distance from station: S 34mi, 54km
Updated: Thu, 19-Apr-2018 10:53am EDT
Clear
Clear
 Wind from NNW
Wind: NNW 18 mph , 30 km/h, Gust: 26 mph , 43 km/h
Temperature: 63°F , 17°C
Dew Point: 41°F , 5°C
Humidity: 45%
Barometer: 30.05 inHg , 1017.6 hPa
Clouds: Clear
Visibility: 10 miles , 16 km
2018/04/19 14:53 KFTY 191453Z 33016G23KT 10SM CLR 17/05 A3005 RMK AO2 SLP169 T01670050 51027
 
KPUJ - Atlanta/Paulding, Georgia, USA
Distance from station: SW 34mi, 55km
Updated: Thu, 19-Apr-2018 11:35am EDT
Clear
Clear
 Wind from NW
Wind: NW 16 mph , 26 km/h, Gust: 24 mph , 39 km/h
Temperature: 63°F , 17°C
Dew Point: 43°F , 6°C
Humidity: 49%
Barometer: 30.08 inHg , 1018.6 hPa
Clouds: Clear
Visibility: 10 miles , 16 km
2018/04/19 15:35 KPUJ 191535Z AUTO 32014G21KT 270V330 10SM CLR 17/06 A3008 RMK AO2
KDNN - Dalton, Georgia, USA
Distance from station: NW 37mi, 59km
Updated: Thu, 19-Apr-2018 11:35am EDT
Mostly cloudy
Mostly cloudy
 Wind from N
Wind: N 14 mph , 22 km/h, Gust: 22 mph , 35 km/h
Temperature: 54°F , 12°C
Dew Point: 37°F , 3°C
Humidity: 54%
Barometer: 30.13 inHg , 1020.3 hPa
Clouds: Mostly cloudy
Visibility: 10 miles , 16 km
Cloud details: Mostly cloudy 4600 ft
2018/04/19 15:35 KDNN 191535Z AUTO 35012G19KT 10SM BKN046 12/03 A3013 RMK AO2
KLZU - Lawrenceville, Georgia, USA
Distance from station: ESE 37mi, 59km
Updated: Thu, 19-Apr-2018 10:56am EDT
Clear
Clear
 Wind from W
Wind: W 9 mph , 15 km/h, Gust: 16 mph , 26 km/h
Temperature: 61°F , 16°C
Dew Point: 37°F , 3°C
Humidity: 42%
Barometer: 30.02 inHg , 1016.6 hPa
Clouds: Clear
Visibility: 10 miles , 16 km
2018/04/19 14:56 KLZU 191456Z 28008G14KT 10SM CLR 16/03 A3002 RMK AO2 SLP171 T01560033 51027
 
KRMG - Rome, Georgia, USA
Distance from station: W 38mi, 61km
Updated: Thu, 19-Apr-2018 10:53am EDT
Clear
Clear
 Wind from NNW
Wind: NNW 14 mph , 22 km/h, Gust: 25 mph , 41 km/h
Temperature: 57°F , 14°C
Dew Point: 39°F , 4°C
Humidity: 51%
Barometer: 30.10 inHg , 1019.3 hPa
Clouds: Clear
Visibility: 10 miles , 16 km
2018/04/19 14:53 KRMG 191453Z AUTO 34012G22KT 10SM CLR 14/04 A3010 RMK AO2 SLP185 T01440039 51025
KGVL - Gainesville, Georgia, USA
Distance from station: E 39mi, 62km
Updated: Thu, 19-Apr-2018 10:53am EDT
Clear
Clear
 Wind from W
Wind: W 14 mph , 22 km/h, Gust: 23 mph , 37 km/h
Temperature: 63°F , 17°C
Dew Point: 37°F , 3°C
Humidity: 39%
Barometer: 30.01 inHg , 1016.3 hPa
Clouds: Clear
Visibility: 10 miles , 16 km
2018/04/19 14:53 KGVL 191453Z AUTO 26012G20KT 10SM CLR 17/03 A3001 RMK AO2 SLP149 T01670028 51023
KATL - Atlanta, Georgia, USA
Distance from station: S 44mi, 71km
Updated: Thu, 19-Apr-2018 10:52am EDT
Clear
Clear
 Wind from NW
Wind: NW 15 mph , 24 km/h, Gust: 21 mph , 33 km/h
Temperature: 63°F , 17°C
Dew Point: 43°F , 6°C
Humidity: 49%
Barometer: 30.05 inHg , 1017.6 hPa
Clouds: Clear
Visibility: 10 miles , 16 km
2018/04/19 14:52 KATL 191452Z 31013G18KT 10SM CLR 17/06 A3005 RMK AO2 SLP168 T01720061 53026